Time;durP1;ratioP1;P1;durP2;ratioP2;P2;SDS_P1;SDS_P2;PMS_P1;PMS_P2;Temp;Humidity;BMP_temperature;BMP_pressure;BME280_temperature;BME280_humidity;BME280_pressure;Samples;Min_cycle;Max_cycle;Signal;HPM_P1;HPM_P2
2022/08/19 00:01:45;;;;;;;7.22;6.53;;;15.70;99.90;;;;;;5108369;27;20887;-82
2022/08/19 00:04:17;;;;;;;8.68;7.88;;;15.70;99.90;;;;;;5097216;27;20066;-82
2022/08/19 00:06:44;;;;;;;9.23;7.97;;;15.60;99.90;;;;;;5094495;27;20136;-82
2022/08/19 00:09:14;;;;;;;8.40;7.53;;;15.60;99.90;;;;;;5100364;27;20087;-82
2022/08/19 00:11:41;;;;;;;11.27;9.80;;;15.60;99.90;;;;;;5109139;27;20738;-82
2022/08/19 00:14:09;;;;;;;9.15;8.25;;;15.60;99.90;;;;;;5093668;27;20051;-82
2022/08/19 00:16:38;;;;;;;9.60;8.60;;;15.70;99.90;;;;;;5099749;27;20054;-82
2022/08/19 00:19:08;;;;;;;9.27;6.75;;;15.70;99.90;;;;;;5095841;27;20748;-82
2022/08/19 00:21:38;;;;;;;9.63;7.88;;;15.70;99.90;;;;;;5104266;27;20043;-82
2022/08/19 00:24:04;;;;;;;7.32;6.63;;;15.60;99.90;;;;;;5085173;27;20104;-82
2022/08/19 00:26:30;;;;;;;6.38;5.78;;;15.60;99.90;;;;;;5079713;27;20043;-82
2022/08/19 00:28:56;;;;;;;9.43;7.10;;;15.60;99.90;;;;;;5099864;27;20163;-82
2022/08/19 00:31:22;;;;;;;7.03;5.63;;;15.50;99.90;;;;;;5115419;27;20521;-82
2022/08/19 00:33:50;;;;;;;8.32;7.35;;;15.50;99.90;;;;;;5079215;27;20042;-82
2022/08/19 00:36:16;;;;;;;10.43;9.32;;;15.40;99.90;;;;;;5100133;27;20863;-82
2022/08/19 00:38:43;;;;;;;9.40;7.93;;;15.40;99.90;;;;;;5096751;27;20050;-81
2022/08/19 00:41:14;;;;;;;10.02;7.10;;;15.30;99.90;;;;;;5077738;27;21066;-83
2022/08/19 00:43:40;;;;;;;6.82;6.13;;;15.30;99.90;;;;;;5094524;27;20055;-82
2022/08/19 00:46:15;;;;;;;8.30;6.53;;;15.20;99.90;;;;;;5079980;27;20074;-83
2022/08/19 00:48:41;;;;;;;9.15;8.07;;;15.20;99.90;;;;;;5068286;27;20051;-82
2022/08/19 00:51:07;;;;;;;7.65;6.55;;;15.20;99.90;;;;;;5080072;28;20537;-83
2022/08/19 00:53:33;;;;;;;9.18;7.10;;;15.20;99.90;;;;;;5072268;27;20123;-83
2022/08/19 00:56:06;;;;;;;8.55;7.70;;;15.20;99.90;;;;;;5061941;27;20228;-83
2022/08/19 00:58:34;;;;;;;8.60;7.70;;;15.30;99.90;;;;;;5079255;27;20043;-83
2022/08/19 01:01:03;;;;;;;8.32;7.28;;;15.30;99.90;;;;;;5095625;27;20043;-81
2022/08/19 01:03:29;;;;;;;8.98;8.10;;;15.30;99.90;;;;;;5094578;27;20396;-83
2022/08/19 01:05:55;;;;;;;6.65;5.90;;;15.30;99.90;;;;;;5069636;28;20051;-83
2022/08/19 01:08:23;;;;;;;6.85;5.68;;;15.30;99.90;;;;;;5114583;27;20078;-84
2022/08/19 01:10:52;;;;;;;6.93;5.35;;;15.30;99.90;;;;;;5114164;27;20047;-83
2022/08/19 01:13:22;;;;;;;6.78;6.03;;;15.20;99.90;;;;;;5115449;27;20032;-82
2022/08/19 01:15:57;;;;;;;8.10;7.22;;;15.20;99.90;;;;;;5097492;27;20039;-82
2022/08/19 01:18:28;;;;;;;7.10;6.30;;;15.20;99.90;;;;;;5107918;27;20863;-81
2022/08/19 01:20:58;;;;;;;6.80;5.30;;;15.10;99.90;;;;;;5105239;27;20054;-82
2022/08/19 01:23:42;;;;;;;8.02;6.40;;;15.10;99.90;;;;;;5109739;27;20398;-82
2022/08/19 01:26:13;;;;;;;7.35;6.55;;;15.00;99.90;;;;;;5100324;27;20035;-82
2022/08/19 01:28:41;;;;;;;8.88;6.18;;;15.00;99.90;;;;;;5096037;28;20046;-82
2022/08/19 01:31:11;;;;;;;7.00;6.20;;;15.00;99.90;;;;;;5084210;27;21484;-82
2022/08/19 01:33:40;;;;;;;7.97;6.45;;;14.90;99.90;;;;;;5100860;27;20192;-82
2022/08/19 01:36:13;;;;;;;8.18;6.63;;;14.90;99.90;;;;;;5083204;28;20119;-82
2022/08/19 01:38:42;;;;;;;15.00;9.60;;;14.90;99.90;;;;;;5084875;28;20052;-83
2022/08/19 01:41:10;;;;;;;6.72;6.03;;;14.90;99.90;;;;;;5078170;28;20039;-83
2022/08/19 01:43:40;;;;;;;7.43;6.72;;;14.80;99.90;;;;;;5076835;28;20858;-83
2022/08/19 01:46:09;;;;;;;7.47;6.78;;;14.80;99.90;;;;;;5076986;28;20039;-83
2022/08/19 01:48:40;;;;;;;7.50;6.80;;;14.80;99.90;;;;;;5098064;28;20040;-83
2022/08/19 01:51:10;;;;;;;7.50;6.70;;;14.80;99.90;;;;;;5079383;28;20390;-83
2022/08/19 01:53:40;;;;;;;10.85;8.63;;;14.80;99.90;;;;;;5089371;28;20155;-83
2022/08/19 01:56:09;;;;;;;8.82;7.95;;;14.80;99.90;;;;;;5095470;28;20040;-83
2022/08/19 01:58:39;;;;;;;8.47;7.67;;;14.80;99.90;;;;;;5082471;28;20028;-83
2022/08/19 02:01:07;;;;;;;7.47;6.85;;;14.80;99.90;;;;;;5093708;28;20055;-83
2022/08/19 02:03:34;;;;;;;7.38;6.60;;;14.80;99.90;;;;;;5099716;28;20051;-83
2022/08/19 02:06:02;;;;;;;7.65;6.95;;;14.80;99.90;;;;;;5121648;27;20091;-83
2022/08/19 02:08:29;;;;;;;9.18;8.27;;;14.80;99.90;;;;;;5087134;28;20078;-83
2022/08/19 02:10:56;;;;;;;8.68;7.88;;;14.80;99.90;;;;;;5095424;28;20044;-83
2022/08/19 02:13:26;;;;;;;9.02;8.18;;;14.70;99.90;;;;;;5104133;28;20126;-85
2022/08/19 02:15:51;;;;;;;9.82;8.25;;;14.70;99.90;;;;;;5107453;28;20409;-86
2022/08/19 02:18:17;;;;;;;9.75;8.73;;;14.70;99.90;;;;;;5093096;28;20039;-86
2022/08/19 02:20:44;;;;;;;11.68;9.82;;;14.70;99.90;;;;;;5089192;28;20089;-87
2022/08/19 02:23:11;;;;;;;10.20;9.20;;;14.70;99.90;;;;;;5098012;28;20138;-83
2022/08/19 02:25:38;;;;;;;12.48;11.27;;;14.70;99.90;;;;;;5093000;28;20143;-83
2022/08/19 02:28:24;;;;;;;13.20;11.80;;;14.70;99.90;;;;;;5051997;28;20062;-83
2022/08/19 02:30:49;;;;;;;11.98;10.77;;;14.80;99.90;;;;;;5093881;28;20036;-83
2022/08/19 02:33:16;;;;;;;9.25;8.30;;;14.80;99.90;;;;;;5075342;28;20044;-83
2022/08/19 02:35:43;;;;;;;8.43;7.50;;;14.80;99.90;;;;;;5077211;28;20055;-83
2022/08/19 02:38:28;;;;;;;7.80;7.10;;;14.80;99.90;;;;;;5103168;28;20719;-86
2022/08/19 02:40:58;;;;;;;9.60;8.20;;;14.70;99.90;;;;;;5076935;28;20107;-86
2022/08/19 02:43:29;;;;;;;8.13;7.43;;;14.70;99.90;;;;;;5099864;28;20066;-86
2022/08/19 02:45:55;;;;;;;12.52;10.48;;;14.60;99.90;;;;;;5067766;28;20062;-87
2022/08/19 02:48:23;;;;;;;8.40;7.60;;;14.50;99.90;;;;;;5053387;28;20499;-87
2022/08/19 02:50:54;;;;;;;13.15;11.73;;;14.50;99.90;;;;;;5074472;28;20051;-87
2022/08/19 02:53:23;;;;;;;10.55;9.65;;;14.50;99.90;;;;;;5106971;28;20094;-87
2022/08/19 02:56:09;;;;;;;12.75;10.82;;;14.50;99.90;;;;;;5107070;28;20155;-88
2022/08/19 02:58:37;;;;;;;14.98;12.45;;;14.50;99.90;;;;;;5090730;28;20440;-87
2022/08/19 03:01:06;;;;;;;15.05;13.55;;;14.50;99.90;;;;;;5073379;28;20039;-87
2022/08/19 03:03:32;;;;;;;14.23;12.85;;;14.50;99.90;;;;;;5072348;28;20051;-87
2022/08/19 03:06:12;;;;;;;13.40;12.13;;;14.50;99.90;;;;;;5093256;28;20096;-87
2022/08/19 03:08:42;;;;;;;13.55;12.25;;;14.50;99.90;;;;;;5096058;28;20100;-86
2022/08/19 03:11:16;;;;;;;13.77;12.43;;;14.50;99.90;;;;;;5105601;28;20048;-87
2022/08/19 03:13:43;;;;;;;20.80;17.35;;;14.50;99.90;;;;;;5107800;28;20051;-87
2022/08/19 03:16:12;;;;;;;14.23;12.75;;;14.60;99.90;;;;;;5108689;28;20075;-88
2022/08/19 03:18:38;;;;;;;65.03;24.85;;;14.50;99.90;;;;;;5111224;28;20078;-87
2022/08/19 03:21:08;;;;;;;75.20;25.55;;;14.60;99.90;;;;;;5079872;28;20050;-88
2022/08/19 03:23:35;;;;;;;45.60;21.90;;;14.60;99.90;;;;;;5079952;28;20081;-88
2022/08/19 03:26:04;;;;;;;34.28;19.75;;;14.50;99.90;;;;;;5090759;28;20047;-88
2022/08/19 03:28:31;;;;;;;14.65;13.15;;;14.50;99.90;;;;;;5101224;28;20052;-88
2022/08/19 03:31:17;;;;;;;26.30;18.85;;;14.40;99.90;;;;;;5091760;28;20056;-87
2022/08/19 03:33:44;;;;;;;46.20;21.05;;;14.40;99.90;;;;;;5099619;28;20111;-84
2022/08/19 03:36:14;;;;;;;26.33;19.15;;;14.30;99.90;;;;;;5092480;28;20090;-84
2022/08/19 03:38:44;;;;;;;18.80;15.27;;;14.30;99.90;;;;;;5103186;27;20070;-84
2022/08/19 03:41:13;;;;;;;25.45;18.13;;;14.30;99.90;;;;;;5104618;27;20692;-84
2022/08/19 03:43:41;;;;;;;18.20;14.65;;;14.20;99.90;;;;;;5099550;28;20051;-84
2022/08/19 03:46:10;;;;;;;13.48;12.27;;;14.20;99.90;;;;;;5111846;27;20131;-88
2022/08/19 03:48:42;;;;;;;13.85;12.45;;;14.10;99.90;;;;;;5129065;27;20081;-88
2022/08/19 03:51:25;;;;;;;15.05;13.65;;;14.10;99.90;;;;;;5124271;27;20036;-88
2022/08/19 03:53:52;;;;;;;14.50;13.10;;;14.20;99.90;;;;;;5112189;28;20040;-88
2022/08/19 03:56:19;;;;;;;12.93;11.73;;;14.20;99.90;;;;;;5108658;28;20043;-88
2022/08/19 03:58:46;;;;;;;11.30;10.15;;;14.30;99.90;;;;;;5125337;27;20044;-88
2022/08/19 04:01:16;;;;;;;10.35;9.38;;;14.30;99.90;;;;;;5105069;27;20042;-88
2022/08/19 04:03:46;;;;;;;10.90;9.90;;;14.30;99.90;;;;;;5091295;27;20043;-88
2022/08/19 04:06:21;;;;;;;12.05;10.75;;;14.20;99.90;;;;;;5104400;27;20050;-88
2022/08/19 04:08:53;;;;;;;11.43;10.23;;;14.20;99.90;;;;;;5110040;27;20047;-88
2022/08/19 04:11:25;;;;;;;20.05;13.13;;;14.20;99.90;;;;;;5104293;27;20048;-88
2022/08/19 04:13:54;;;;;;;24.52;16.20;;;14.10;99.90;;;;;;5122186;27;20051;-88
2022/08/19 04:16:22;;;;;;;20.98;15.57;;;14.10;99.90;;;;;;5106714;27;20031;-88
2022/08/19 04:18:49;;;;;;;11.30;10.13;;;14.00;99.90;;;;;;5099890;27;20039;-88
2022/08/19 04:21:22;;;;;;;13.57;12.30;;;14.00;99.90;;;;;;5108114;27;20054;-84
2022/08/19 04:23:50;;;;;;;21.67;18.38;;;14.00;99.90;;;;;;5115639;27;20070;-84
2022/08/19 04:26:24;;;;;;;13.68;12.35;;;14.00;99.90;;;;;;5095020;28;20067;-84
2022/08/19 04:28:51;;;;;;;14.77;12.50;;;14.10;99.90;;;;;;5093690;27;20036;-83
2022/08/19 04:31:26;;;;;;;13.13;11.60;;;14.00;99.90;;;;;;5121204;27;20047;-84
2022/08/19 04:34:00;;;;;;;12.50;11.27;;;14.00;99.90;;;;;;5100943;28;20092;-83
2022/08/19 04:36:32;;;;;;;12.98;11.70;;;13.90;99.90;;;;;;5109004;27;20150;-83
2022/08/19 04:39:02;;;;;;;16.05;13.15;;;13.90;99.90;;;;;;5112878;27;20047;-84
2022/08/19 04:44:17;;;;;;;17.55;15.77;;;13.90;99.90;;;;;;5100434;27;20505;-84
2022/08/19 04:46:51;;;;;;;19.73;16.67;;;13.90;99.90;;;;;;5108483;28;20056;-83
2022/08/19 04:49:21;;;;;;;18.25;16.25;;;14.00;99.90;;;;;;5104543;27;20077;-83
2022/08/19 04:51:54;;;;;;;17.95;16.05;;;14.00;99.90;;;;;;5107558;27;20047;-84
2022/08/19 04:54:22;;;;;;;31.05;20.10;;;14.00;99.90;;;;;;5122449;27;20043;-83
2022/08/19 04:56:53;;;;;;;17.35;15.57;;;14.00;99.90;;;;;;5101709;27;20073;-88
2022/08/19 04:59:21;;;;;;;16.77;15.18;;;14.00;99.90;;;;;;5099256;28;20118;-88
2022/08/19 05:01:49;;;;;;;27.83;18.15;;;14.00;99.90;;;;;;5105913;28;20509;-87
2022/08/19 05:04:17;;;;;;;54.88;25.83;;;14.00;99.90;;;;;;5098913;28;20042;-87
2022/08/19 05:06:43;;;;;;;36.60;23.38;;;14.00;99.90;;;;;;5090558;28;20567;-86
2022/08/19 05:09:09;;;;;;;18.50;16.70;;;14.00;99.90;;;;;;5076366;28;20047;-87
2022/08/19 05:11:40;;;;;;;18.33;16.58;;;14.00;99.90;;;;;;5091741;27;20444;-87
2022/08/19 05:14:12;;;;;;;19.98;17.90;;;14.10;99.90;;;;;;5099121;27;20108;-87
2022/08/19 05:16:40;;;;;;;21.55;19.25;;;14.10;99.90;;;;;;5095357;28;20439;-87
2022/08/19 05:24:54;;;;;;;33.35;23.92;;;14.30;99.90;;;;;;5091256;27;20054;-86
2022/08/19 05:27:20;;;;;;;54.22;28.45;;;14.30;99.90;;;;;;5078471;27;20136;-86
2022/08/19 05:29:45;;;;;;;21.73;19.52;;;14.30;99.90;;;;;;5090383;27;20075;-86
2022/08/19 05:32:12;;;;;;;44.75;25.38;;;14.30;99.90;;;;;;5095318;28;20050;-86
2022/08/19 05:34:38;;;;;;;44.28;25.70;;;14.40;99.90;;;;;;5091597;27;20127;-87
2022/08/19 05:37:08;;;;;;;19.08;17.23;;;14.40;99.90;;;;;;5114091;27;20144;-87
2022/08/19 05:39:38;;;;;;;18.40;16.60;;;14.40;99.90;;;;;;5087767;27;20091;-87
2022/08/19 05:42:12;;;;;;;19.92;17.83;;;14.50;99.90;;;;;;5104374;27;20043;-87
2022/08/19 05:44:43;;;;;;;21.08;18.92;;;14.50;99.90;;;;;;5102980;27;20083;-88
2022/08/19 05:47:11;;;;;;;28.88;22.88;;;14.60;99.90;;;;;;5095946;27;20108;-87
2022/08/19 05:49:37;;;;;;;28.77;24.45;;;14.70;99.90;;;;;;5072014;27;20043;-86
2022/08/19 05:52:06;;;;;;;25.58;22.88;;;14.80;99.90;;;;;;5104826;27;20490;-87
2022/08/19 05:54:32;;;;;;;30.17;25.88;;;14.90;99.90;;;;;;5099897;27;20047;-87
2022/08/19 05:56:58;;;;;;;29.35;25.70;;;15.00;99.90;;;;;;5127550;27;20480;-87
2022/08/19 05:59:24;;;;;;;32.30;27.52;;;15.10;99.90;;;;;;5121909;27;20039;-86
2022/08/19 06:01:51;;;;;;;32.05;26.60;;;15.20;99.90;;;;;;5107063;27;20043;-87
2022/08/19 06:04:19;;;;;;;31.83;27.08;;;15.30;99.90;;;;;;5104419;27;20054;-86
2022/08/19 06:06:51;;;;;;;31.40;27.48;;;15.30;99.90;;;;;;5098529;27;20130;-87
2022/08/19 06:09:19;;;;;;;34.35;28.13;;;15.40;99.90;;;;;;5100705;27;20775;-86
2022/08/19 06:11:48;;;;;;;30.17;25.80;;;15.50;99.90;;;;;;5084022;27;20517;-86
2022/08/19 06:14:22;;;;;;;31.53;27.57;;;15.60;99.90;;;;;;5096008;28;20051;-87
2022/08/19 06:16:50;;;;;;;32.05;27.67;;;15.70;99.90;;;;;;5102697;27;20311;-86
2022/08/19 06:19:19;;;;;;;33.50;27.40;;;15.80;99.90;;;;;;5093414;27;20046;-87
2022/08/19 06:21:47;;;;;;;32.50;27.63;;;15.90;99.90;;;;;;5094255;27;20043;-86
2022/08/19 06:24:16;;;;;;;28.00;24.92;;;16.00;99.90;;;;;;5099635;27;20051;-86
2022/08/19 06:26:44;;;;;;;31.10;27.55;;;16.10;99.90;;;;;;5091306;28;20070;-87
2022/08/19 06:29:12;;;;;;;28.27;25.40;;;16.10;99.90;;;;;;5093986;28;20096;-87
2022/08/19 06:31:45;;;;;;;27.83;24.63;;;16.30;99.90;;;;;;5108354;27;20050;-87
2022/08/19 06:34:12;;;;;;;28.63;25.38;;;16.30;99.90;;;;;;5096555;28;20047;-86
2022/08/19 06:36:44;;;;;;;33.47;28.05;;;16.40;99.90;;;;;;5075334;28;21411;-87
2022/08/19 06:39:16;;;;;;;28.95;25.73;;;16.60;99.90;;;;;;5111401;27;20081;-87
2022/08/19 06:41:45;;;;;;;30.35;25.83;;;16.60;99.90;;;;;;5102119;28;20084;-88
2022/08/19 06:44:15;;;;;;;28.23;25.17;;;16.70;99.90;;;;;;5111322;27;20047;-87
2022/08/19 06:47:04;;;;;;;28.17;25.15;;;16.70;99.90;;;;;;5084826;27;20039;-86
2022/08/19 06:49:31;;;;;;;27.48;24.00;;;16.90;99.90;;;;;;5101290;27;20039;-87
2022/08/19 06:51:58;;;;;;;30.08;27.02;;;17.00;99.90;;;;;;5101123;28;20039;-87
2022/08/19 06:54:25;;;;;;;29.23;26.45;;;17.10;99.90;;;;;;5084263;28;20068;-88
2022/08/19 06:56:52;;;;;;;29.83;26.77;;;17.20;99.90;;;;;;5113319;28;20248;-87
2022/08/19 06:59:25;;;;;;;34.40;30.25;;;17.30;99.90;;;;;;5103170;28;20065;-87
2022/08/19 07:01:54;;;;;;;32.55;29.08;;;17.50;99.90;;;;;;5102836;28;20035;-86
2022/08/19 07:04:23;;;;;;;28.87;26.03;;;17.60;99.90;;;;;;5113135;28;20047;-87
2022/08/19 07:06:56;;;;;;;29.45;26.45;;;17.70;99.90;;;;;;5099372;28;20388;-86
2022/08/19 07:09:22;;;;;;;27.83;25.08;;;17.80;99.90;;;;;;5118859;28;20494;-87
2022/08/19 07:11:50;;;;;;;25.83;23.08;;;17.90;99.90;;;;;;5097387;28;20055;-85
2022/08/19 07:14:20;;;;;;;29.63;26.92;;;18.00;99.90;;;;;;5113826;28;20078;-86
2022/08/19 07:16:49;;;;;;;28.25;25.33;;;18.10;99.90;;;;;;5093972;28;20043;-85
2022/08/19 07:19:16;;;;;;;25.20;22.70;;;18.30;99.90;;;;;;5108723;28;20384;-86
2022/08/19 07:21:42;;;;;;;24.98;22.55;;;18.40;99.90;;;;;;5078805;28;20134;-84
2022/08/19 07:24:08;;;;;;;24.50;21.98;;;18.50;99.90;;;;;;5068631;28;20131;-85
2022/08/19 07:26:39;;;;;;;24.48;22.27;;;18.70;99.90;;;;;;5096693;28;20486;-84
2022/08/19 07:29:08;;;;;;;24.52;22.27;;;18.80;99.90;;;;;;5110807;28;20076;-83
2022/08/19 07:31:36;;;;;;;23.98;21.67;;;18.90;99.90;;;;;;5079838;28;20031;-83
2022/08/19 07:34:06;;;;;;;23.48;21.38;;;19.10;99.90;;;;;;5068362;28;20035;-82
2022/08/19 07:36:33;;;;;;;;;;;19.20;99.90;;;;;;5107663;28;20047;-83
2022/08/19 07:39:02;;;;;;;21.33;19.23;;;19.40;99.90;;;;;;5080355;28;19954;-82
2022/08/19 07:41:31;;;;;;;22.00;19.88;;;19.50;99.90;;;;;;5109954;28;20900;-82
2022/08/19 07:43:58;;;;;;;21.27;19.20;;;19.60;99.90;;;;;;5113068;28;20044;-82
2022/08/19 07:46:25;;;;;;;22.08;20.02;;;19.80;99.90;;;;;;5089814;28;20382;-83
2022/08/19 07:48:51;;;;;;;19.85;18.05;;;19.90;99.90;;;;;;5094686;28;20043;-81
2022/08/19 07:51:19;;;;;;;19.90;18.13;;;20.10;99.90;;;;;;5078442;28;20039;-80
2022/08/19 07:53:47;;;;;;;20.05;18.25;;;20.10;99.90;;;;;;5080748;28;20035;-81
2022/08/19 07:56:14;;;;;;;18.70;17.10;;;20.30;99.90;;;;;;5105334;28;20165;-81
2022/08/19 07:58:43;;;;;;;18.45;16.83;;;20.40;99.90;;;;;;5092583;27;20036;-81
2022/08/19 08:01:18;;;;;;;19.20;17.33;;;20.60;99.90;;;;;;5097015;27;20046;-81
2022/08/19 08:09:21;;;;;;;16.88;15.27;;;21.10;99.90;;;;;;5093312;27;20043;-80
2022/08/19 08:11:57;;;;;;;16.45;14.95;;;21.20;99.90;;;;;;5109444;27;20043;-81
2022/08/19 08:14:28;;;;;;;14.32;12.95;;;21.40;99.90;;;;;;5112031;27;20238;-80
2022/08/19 08:16:56;;;;;;;16.05;14.60;;;21.50;99.90;;;;;;5105117;27;20047;-81
2022/08/19 08:19:25;;;;;;;16.17;14.70;;;21.70;99.90;;;;;;5098813;27;20676;-81
2022/08/19 08:21:53;;;;;;;15.43;13.98;;;21.80;99.90;;;;;;5107885;27;20104;-80
2022/08/19 08:24:19;;;;;;;16.77;15.27;;;21.90;99.90;;;;;;5099666;27;20044;-82
2022/08/19 08:26:46;;;;;;;15.75;14.15;;;22.00;99.90;;;;;;5083954;27;20031;-80
2022/08/19 08:29:12;;;;;;;16.15;14.55;;;22.10;99.90;;;;;;5115490;27;20051;-79
2022/08/19 08:31:43;;;;;;;14.73;13.23;;;22.30;99.90;;;;;;5093151;27;20059;-79
2022/08/19 08:34:10;;;;;;;17.83;16.13;;;22.50;99.90;;;;;;5115810;27;20535;-80
2022/08/19 08:36:41;;;;;;;19.10;17.35;;;22.60;99.90;;;;;;5111747;27;20058;-79
2022/08/19 08:39:09;;;;;;;21.48;19.55;;;22.70;99.90;;;;;;5098273;27;20070;-81
2022/08/19 08:41:44;;;;;;;22.13;20.05;;;22.80;99.90;;;;;;5112668;27;20052;-82
2022/08/19 08:44:36;;;;;;;19.52;17.83;;;22.90;99.90;;;;;;5110806;27;20048;-80
2022/08/19 08:47:10;;;;;;;19.85;18.00;;;23.00;99.90;;;;;;5112935;27;20544;-80
2022/08/19 08:49:44;;;;;;;20.17;18.27;;;23.10;99.90;;;;;;5100859;28;20185;-79
2022/08/19 08:52:18;;;;;;;18.08;16.48;;;23.10;99.90;;;;;;5096513;27;20039;-80
2022/08/19 08:54:47;;;;;;;19.15;17.38;;;23.30;99.90;;;;;;5099853;28;20055;-80
2022/08/19 08:57:19;;;;;;;18.73;17.02;;;23.40;99.90;;;;;;5099599;27;20160;-80
2022/08/19 08:59:51;;;;;;;19.02;17.40;;;23.40;99.90;;;;;;5106072;27;20876;-80
2022/08/19 09:02:18;;;;;;;20.25;18.45;;;23.50;99.90;;;;;;5101907;27;20039;-79
2022/08/19 09:04:44;;;;;;;19.75;18.05;;;23.60;99.90;;;;;;5111764;27;20080;-80
2022/08/19 09:07:32;;;;;;;18.95;17.13;;;23.70;99.90;;;;;;5098689;27;20078;-80
2022/08/19 09:10:24;;;;;;;19.52;17.63;;;23.80;99.90;;;;;;5090257;28;20087;-80
2022/08/19 09:13:08;;;;;;;17.33;15.77;;;24.00;99.90;;;;;;5097739;27;20589;-82
2022/08/19 09:15:44;;;;;;;17.73;16.17;;;24.10;99.90;;;;;;5090133;27;20042;-82
2022/08/19 09:18:13;;;;;;;17.00;15.40;;;24.20;99.90;;;;;;5110056;27;20114;-81
2022/08/19 09:20:42;;;;;;;18.98;17.27;;;24.30;99.90;;;;;;5101022;28;20089;-81
2022/08/19 09:23:09;;;;;;;21.15;18.98;;;24.40;99.90;;;;;;5098100;27;20125;-79
2022/08/19 09:25:35;;;;;;;19.08;17.38;;;24.40;99.90;;;;;;5088414;27;20066;-79
2022/08/19 09:28:03;;;;;;;18.08;16.33;;;24.40;99.90;;;;;;5094084;28;20429;-79
2022/08/19 09:30:33;;;;;;;19.60;17.87;;;24.50;99.90;;;;;;5090924;28;20039;-78
2022/08/19 09:32:59;;;;;;;18.85;17.25;;;24.50;99.90;;;;;;5097202;27;20035;-79
2022/08/19 09:35:30;;;;;;;16.40;14.90;;;24.60;99.90;;;;;;5125064;27;20051;-79
2022/08/19 09:37:57;;;;;;;17.70;16.00;;;24.70;99.90;;;;;;5090857;27;20673;-78
2022/08/19 09:40:24;;;;;;;16.25;14.65;;;24.80;99.90;;;;;;5102036;27;20554;-78
2022/08/19 09:42:50;;;;;;;17.23;15.73;;;24.90;99.90;;;;;;5093422;27;20042;-78
2022/08/19 09:45:20;;;;;;;15.25;13.85;;;25.10;99.90;;;;;;5081671;27;20043;-78
2022/08/19 09:47:46;;;;;;;;;;;25.20;99.90;;;;;;5124391;27;20046;-78
2022/08/19 09:50:13;;;;;;;14.18;12.88;;;25.20;99.90;;;;;;5118991;27;19972;-78
2022/08/19 09:52:39;;;;;;;17.90;16.20;;;25.30;99.90;;;;;;5099782;27;20486;-78
2022/08/19 09:55:09;;;;;;;14.65;13.27;;;25.40;99.90;;;;;;5089158;27;20054;-79
2022/08/19 09:57:38;;;;;;;14.05;12.55;;;25.50;99.90;;;;;;5118149;27;20042;-81
2022/08/19 10:00:09;;;;;;;13.23;11.98;;;25.50;99.90;;;;;;5108609;27;20055;-78
2022/08/19 10:02:35;;;;;;;13.40;12.10;;;25.60;99.90;;;;;;5093957;27;20052;-77
2022/08/19 10:07:52;;;;;;;14.05;12.75;;;25.90;99.90;;;;;;5098621;27;20043;-78
2022/08/19 10:10:20;;;;;;;14.75;13.43;;;26.00;99.90;;;;;;5117124;27;20053;-78
2022/08/19 10:12:48;;;;;;;15.63;13.03;;;26.10;99.90;;;;;;5102432;27;20051;-78
2022/08/19 10:15:14;;;;;;;15.88;14.43;;;26.20;99.90;;;;;;5118139;27;20316;-77
2022/08/19 10:17:43;;;;;;;15.63;14.18;;;26.30;99.90;;;;;;5083576;27;20072;-82
2022/08/19 10:20:10;;;;;;;16.45;14.75;;;26.20;99.90;;;;;;5114157;27;20041;-78
2022/08/19 10:22:42;;;;;;;13.90;12.52;;;26.30;99.90;;;;;;5076122;27;21192;-78
2022/08/19 10:25:08;;;;;;;13.27;11.98;;;26.30;99.90;;;;;;5082392;27;20115;-82
2022/08/19 10:27:34;;;;;;;8.73;7.68;;;26.40;99.90;;;;;;5081818;27;20084;-82
2022/08/19 10:29:59;;;;;;;12.73;11.48;;;26.50;99.90;;;;;;5116291;27;20122;-81
2022/08/19 10:32:25;;;;;;;11.52;10.50;;;26.70;99.90;;;;;;5118835;27;20048;-82
2022/08/19 10:34:52;;;;;;;10.18;9.18;;;26.70;99.90;;;;;;5097796;27;20253;-80
2022/08/19 10:37:17;;;;;;;10.45;9.52;;;26.70;99.90;;;;;;5137615;27;20146;-80
2022/08/19 10:39:49;;;;;;;11.60;10.50;;;26.80;99.90;;;;;;5107191;27;20139;-80
2022/08/19 10:42:15;;;;;;;14.73;13.32;;;26.90;99.90;;;;;;5109069;27;20043;-81
2022/08/19 10:44:42;;;;;;;11.68;10.00;;;27.00;99.90;;;;;;5099110;27;20051;-81
2022/08/19 10:47:08;;;;;;;12.43;11.13;;;27.00;99.90;;;;;;5114079;27;20039;-81
2022/08/19 10:52:32;;;;;;;12.50;11.20;;;27.10;99.90;;;;;;5103913;27;20043;-81
2022/08/19 10:52:35;;;;;;;12.60;11.50;;;27.10;99.90;;;;;;5121427;27;20507;-81
2022/08/19 10:57:52;;;;;;;11.98;9.90;;;27.00;99.00;;;;;;5114076;27;20046;-81
2022/08/19 11:00:19;;;;;;;10.75;9.65;;;26.90;98.60;;;;;;5095037;27;20050;-81
2022/08/19 11:02:48;;;;;;;10.18;9.10;;;26.80;99.30;;;;;;5117694;27;20094;-81
2022/08/19 11:05:16;;;;;;;10.23;9.25;;;26.80;99.90;;;;;;5114778;27;20095;-82
2022/08/19 11:07:44;;;;;;;9.30;8.40;;;26.80;99.90;;;;;;5117408;27;20051;-82
2022/08/19 11:10:11;;;;;;;12.27;11.07;;;26.80;99.90;;;;;;5111558;27;20043;-79
2022/08/19 11:12:39;;;;;;;12.13;10.85;;;26.80;99.90;;;;;;5086550;28;20058;-79
2022/08/19 11:15:08;;;;;;;11.90;10.70;;;26.70;99.90;;;;;;5100305;28;20039;-78
2022/08/19 11:17:35;;;;;;;12.10;10.82;;;26.60;99.90;;;;;;5117763;27;20043;-79
2022/08/19 11:20:04;;;;;;;11.48;10.48;;;26.60;99.90;;;;;;5097284;27;20039;-78
2022/08/19 11:22:30;;;;;;;11.30;10.18;;;26.60;99.90;;;;;;5126386;27;20047;-79
2022/08/19 11:24:56;;;;;;;13.18;11.88;;;26.70;99.90;;;;;;5085163;27;20054;-79
2022/08/19 11:27:22;;;;;;;11.50;10.30;;;26.80;99.90;;;;;;5108299;27;20380;-79
2022/08/19 11:29:47;;;;;;;17.65;10.57;;;26.90;99.90;;;;;;5105137;27;20097;-79
2022/08/19 11:32:16;;;;;;;12.70;11.40;;;27.10;99.90;;;;;;5114760;27;20051;-80
2022/08/19 11:34:45;;;;;;;12.18;10.98;;;27.30;99.90;;;;;;5104883;27;20041;-80
2022/08/19 11:37:11;;;;;;;11.85;10.68;;;27.40;99.40;;;;;;5107436;27;20062;-79
2022/08/19 11:39:38;;;;;;;13.35;11.93;;;27.50;98.60;;;;;;5089639;27;20570;-80
2022/08/19 11:44:54;;;;;;;12.55;11.40;;;27.60;97.80;;;;;;5124625;27;20042;-80
2022/08/19 11:47:20;;;;;;;10.32;9.35;;;27.70;98.60;;;;;;5100098;27;20115;-80
2022/08/19 11:49:49;;;;;;;13.18;11.88;;;27.80;96.60;;;;;;5101308;27;20153;-79
2022/08/19 11:52:15;;;;;;;12.40;11.10;;;27.60;94.40;;;;;;5079339;27;20134;-79
2022/08/19 11:54:41;;;;;;;12.77;10.73;;;27.40;95.70;;;;;;5087644;27;20126;-81
2022/08/19 11:57:09;;;;;;;8.05;7.25;;;27.20;96.00;;;;;;5099005;27;20098;-79
2022/08/19 11:59:35;;;;;;;6.30;5.13;;;27.10;94.40;;;;;;5117094;27;20058;-79
2022/08/19 12:02:01;;;;;;;6.97;5.82;;;27.10;93.20;;;;;;5088074;27;20043;-79
2022/08/19 12:04:30;;;;;;;5.93;5.35;;;27.20;93.80;;;;;;5079583;27;20077;-79
2022/08/19 12:06:56;;;;;;;6.97;4.37;;;27.30;93.10;;;;;;5089314;27;20034;-79
2022/08/19 12:09:22;;;;;;;6.63;5.35;;;27.20;89.70;;;;;;5109030;27;20045;-80
2022/08/19 12:11:47;;;;;;;6.10;5.13;;;27.20;90.40;;;;;;5102936;27;20086;-80
2022/08/19 12:14:17;;;;;;;7.30;5.05;;;27.30;91.50;;;;;;5102472;27;20039;-79
2022/08/19 12:16:45;;;;;;;;;;;27.40;92.00;;;;;;5102374;27;20035;-79
2022/08/19 12:19:13;;;;;;;8.55;7.60;;;27.40;92.10;;;;;;5114197;27;19972;-79
2022/08/19 12:21:40;;;;;;;7.07;5.60;;;27.30;93.60;;;;;;5097392;27;20668;-79
2022/08/19 12:24:09;;;;;;;5.90;4.65;;;27.30;93.00;;;;;;5108543;27;20080;-80
2022/08/19 12:26:42;;;;;;;4.85;4.07;;;27.30;92.50;;;;;;5102289;27;20843;-78
2022/08/19 12:29:08;;;;;;;5.10;4.43;;;27.30;90.10;;;;;;5102292;27;20074;-79
2022/08/19 12:31:37;;;;;;;5.18;4.65;;;27.30;88.60;;;;;;5106386;27;20130;-77
2022/08/19 12:34:02;;;;;;;6.73;4.60;;;27.30;87.00;;;;;;5120674;27;20039;-78
2022/08/19 12:36:31;;;;;;;4.97;3.83;;;27.40;89.50;;;;;;5105026;27;20846;-78
2022/08/19 12:38:59;;;;;;;5.68;4.38;;;27.60;85.80;;;;;;5121452;27;20973;-78
2022/08/19 12:41:25;;;;;;;6.68;5.40;;;27.80;87.70;;;;;;5114634;27;20047;-79
2022/08/19 12:43:51;;;;;;;9.48;6.38;;;28.00;84.90;;;;;;5102317;27;20035;-78
2022/08/19 12:46:21;;;;;;;6.97;6.28;;;28.10;87.50;;;;;;5114170;27;20852;-78
2022/08/19 12:48:52;;;;;;;7.38;5.18;;;28.30;90.60;;;;;;5108428;27;20514;-79
2022/08/19 12:51:21;;;;;;;9.18;7.38;;;28.30;90.40;;;;;;5089693;27;20051;-78
2022/08/19 12:53:48;;;;;;;8.00;6.47;;;28.30;88.50;;;;;;5118196;27;20051;-79
2022/08/19 12:56:14;;;;;;;10.75;8.02;;;28.30;88.40;;;;;;5107559;27;20051;-78
2022/08/19 12:58:42;;;;;;;8.65;6.85;;;28.30;89.30;;;;;;5107921;27;20049;-78
2022/08/19 13:01:13;;;;;;;9.40;8.02;;;28.40;90.70;;;;;;5118026;27;20039;-78
2022/08/19 13:03:39;;;;;;;7.88;7.07;;;28.30;91.40;;;;;;5097424;27;20047;-79
2022/08/19 13:06:09;;;;;;;7.45;6.70;;;28.30;92.00;;;;;;5120529;27;20038;-78